Time;durP1;ratioP1;P1;durP2;ratioP2;P2;SDS_P1;SDS_P2;PMS_P1;PMS_P2;Temp;Humidity;BMP_temperature;BMP_pressure;BME280_temperature;BME280_humidity;BME280_pressure;Samples;Min_cycle;Max_cycle;Signal;HPM_P1;HPM_P2
2024/04/22 00:01:14;;;;;;;;;9.00;9.00;;;;;7.95;100.00;102105.44;5156170;27;44046;-85
2024/04/22 00:03:40;;;;;;;;;12.67;12.67;;;;;8.00;100.00;102109.50;5154332;27;49383;-84
2024/04/22 00:06:05;;;;;;;;;8.33;8.33;;;;;7.94;100.00;102101.06;5155888;27;52098;-84
2024/04/22 00:08:30;;;;;;;;;11.33;11.33;;;;;7.98;100.00;102106.13;5154923;27;43807;-85
2024/04/22 00:11:00;;;;;;;;;10.67;9.33;;;;;8.00;100.00;102101.56;5154517;27;45554;-85
2024/04/22 00:13:26;;;;;;;;;9.33;9.33;;;;;8.05;100.00;102097.56;5154228;27;45838;-85
2024/04/22 00:15:51;;;;;;;;;12.00;11.00;;;;;8.00;100.00;102091.81;5156164;27;43837;-84
2024/04/22 00:18:17;;;;;;;;;9.33;8.33;;;;;8.09;100.00;102106.13;5154614;27;43717;-85
2024/04/22 00:20:42;;;;;;;;;8.67;8.67;;;;;8.11;100.00;102106.81;5153924;27;56019;-84
2024/04/22 00:23:07;;;;;;;;;12.00;8.00;;;;;8.14;100.00;102114.53;5154297;27;46849;-84
2024/04/22 00:25:32;;;;;;;;;11.33;11.00;;;;;8.10;100.00;102107.78;5154295;27;44394;-83
2024/04/22 00:27:58;;;;;;;;;9.67;9.67;;;;;8.11;100.00;102101.53;5155215;27;44837;-84
2024/04/22 00:30:23;;;;;;;;;10.00;9.67;;;;;8.14;100.00;102100.47;5155753;27;43896;-84
2024/04/22 00:32:48;;;;;;;;;10.33;10.33;;;;;8.09;100.00;102098.19;5153763;27;51396;-85
2024/04/22 00:35:14;;;;;;;;;10.33;10.33;;;;;8.11;100.00;102101.53;5181132;27;51926;-84
2024/04/22 00:37:39;;;;;;;;;10.33;10.33;;;;;8.16;100.00;102103.81;5181637;27;43772;-83
2024/04/22 00:40:05;;;;;;;;;8.00;8.00;;;;;8.09;100.00;102103.47;5153428;27;54305;-84
2024/04/22 00:42:30;;;;;;;;;9.67;9.67;;;;;8.09;100.00;102095.53;5153442;27;45594;-85
2024/04/22 00:44:56;;;;;;;;;10.00;8.67;;;;;8.16;100.00;102109.94;5153790;27;43949;-85
2024/04/22 00:47:21;;;;;;;;;12.00;10.00;;;;;8.16;100.00;102102.00;5155774;27;43958;-85
2024/04/22 00:49:46;;;;;;;;;7.00;7.00;;;;;8.15;100.00;102104.78;5153916;27;44598;-84
2024/04/22 00:52:12;;;;;;;;;11.33;11.33;;;;;8.23;100.00;102120.88;5153700;27;45794;-85
2024/04/22 00:54:37;;;;;;;;;11.00;11.00;;;;;8.14;100.00;102095.16;5155515;27;43877;-83
2024/04/22 00:57:03;;;;;;;;;11.33;10.67;;;;;8.16;100.00;102098.50;5155320;27;43907;-85
2024/04/22 00:59:28;;;;;;;;;9.33;9.33;;;;;8.14;100.00;102093.31;5181272;27;44742;-85
2024/04/22 01:01:54;;;;;;;;;12.00;11.33;;;;;8.18;100.00;102105.38;5155106;27;44015;-85
2024/04/22 01:04:19;;;;;;;;;11.00;11.00;;;;;8.17;100.00;102103.69;5155365;27;43816;-85
2024/04/22 01:06:45;;;;;;;;;13.00;10.33;;;;;8.15;100.00;102095.03;5155429;27;43976;-85
2024/04/22 01:09:10;;;;;;;;;8.33;8.33;;;;;8.12;100.00;102097.06;5180827;27;43916;-85
2024/04/22 01:11:35;;;;;;;;;8.33;8.33;;;;;8.04;100.00;102098.53;5153071;27;46821;-84
2024/04/22 01:14:02;;;;;;;;;13.67;12.00;;;;;8.06;100.00;102098.41;5155167;27;43666;-84
2024/04/22 01:16:27;;;;;;;;;15.33;12.00;;;;;8.02;100.00;102089.06;5153176;27;43907;-85
2024/04/22 01:18:53;;;;;;;;;11.00;11.00;;;;;8.03;100.00;102101.31;5154418;27;43902;-85
2024/04/22 01:21:28;;;;;;;;;10.67;10.33;;;;;7.98;100.00;102099.03;5182619;27;55306;-85
2024/04/22 01:23:55;;;;;;;;;11.33;11.33;;;;;7.99;100.00;102113.94;5157923;27;43852;-85
2024/04/22 01:26:24;;;;;;;;;13.00;13.00;;;;;7.88;100.00;102091.00;5156005;27;43976;-85
2024/04/22 01:28:49;;;;;;;;;13.00;12.67;;;;;7.93;100.00;102106.53;5157463;27;43884;-84
2024/04/22 01:31:16;;;;;;;;;13.00;12.00;;;;;7.82;100.00;102089.66;5157235;27;44935;-84
2024/04/22 01:33:41;;;;;;;;;13.00;11.00;;;;;7.85;100.00;102099.19;5157752;27;43730;-84
2024/04/22 01:36:07;;;;;;;;;13.67;11.00;;;;;7.82;100.00;102088.84;5157569;27;43873;-84
2024/04/22 01:38:32;;;;;;;;;12.67;11.67;;;;;7.79;100.00;102089.94;5157002;27;45329;-85
2024/04/22 01:40:57;;;;;;;;;10.00;10.00;;;;;7.75;100.00;102082.34;5157267;27;51389;-85
2024/04/22 01:43:23;;;;;;;;;11.67;11.00;;;;;7.78;100.00;102095.34;5155909;27;43821;-85
2024/04/22 01:45:48;;;;;;;;;10.33;10.33;;;;;7.79;100.00;102094.38;5155817;27;44730;-84
2024/04/22 01:48:14;;;;;;;;;13.33;13.33;;;;;7.73;100.00;102081.63;5157410;27;43865;-85
2024/04/22 01:50:39;;;;;;;;;12.00;12.00;;;;;7.74;100.00;102085.94;5155675;27;45931;-85
2024/04/22 01:53:04;;;;;;;;;11.00;10.00;;;;;7.72;100.00;102079.97;5157748;27;43919;-85
2024/04/22 01:55:30;;;;;;;;;12.33;12.00;;;;;7.64;100.00;102065.53;5157348;27;46054;-84
2024/04/22 01:57:55;;;;;;;;;12.33;11.33;;;;;7.67;100.00;102069.72;5157158;27;43957;-85
2024/04/22 02:00:20;;;;;;;;;13.67;12.33;;;;;7.63;100.00;102061.19;5155549;27;53335;-85
2024/04/22 02:02:46;;;;;;;;;10.33;10.33;;;;;7.66;100.00;102070.72;5157391;27;46107;-85
2024/04/22 02:05:11;;;;;;;;;13.00;11.67;;;;;7.59;100.00;102062.41;5157963;27;43805;-85
2024/04/22 02:07:36;;;;;;;;;14.00;13.00;;;;;7.55;100.00;102063.59;5155730;27;44650;-85
2024/04/22 02:10:03;;;;;;;;;12.67;12.67;;;;;7.51;100.00;102065.66;5157578;27;44061;-85
2024/04/22 02:12:28;;;;;;;;;12.33;12.33;;;;;7.42;100.00;102061.94;5157520;27;43896;-85
2024/04/22 02:14:53;;;;;;;;;14.00;11.67;;;;;7.36;100.00;102064.22;5157438;27;44375;-85
2024/04/22 02:17:19;;;;;;;;;13.00;12.00;;;;;7.33;100.00;102063.50;5157125;27;53185;-85
2024/04/22 02:19:44;;;;;;;;;10.67;9.33;;;;;7.30;100.00;102063.72;5155731;27;45630;-83
2024/04/22 02:22:10;;;;;;;;;10.33;9.67;;;;;7.23;100.00;102045.81;5157417;27;43749;-85
2024/04/22 02:24:35;;;;;;;;;11.00;11.00;;;;;7.24;100.00;102055.44;5157116;27;45660;-85
2024/04/22 02:27:00;;;;;;;;;10.67;10.67;;;;;7.24;100.00;102053.63;5156897;27;47126;-85
2024/04/22 02:29:25;;;;;;;;;11.00;11.00;;;;;7.16;100.00;102042.81;5155257;27;45946;-85
2024/04/22 02:31:51;;;;;;;;;9.33;9.33;;;;;7.14;100.00;102044.72;5155919;27;43642;-85
2024/04/22 02:34:17;;;;;;;;;15.67;12.00;;;;;7.09;100.00;102047.72;5156971;27;53627;-85
2024/04/22 02:36:42;;;;;;;;;11.33;10.67;;;;;7.06;100.00;102040.88;5157380;27;43919;-85
2024/04/22 02:39:08;;;;;;;;;12.00;11.67;;;;;7.05;100.00;102043.63;5156427;27;45110;-84
2024/04/22 02:41:33;;;;;;;;;13.33;12.33;;;;;6.99;100.00;102044.09;5155469;27;43872;-85
2024/04/22 02:43:59;;;;;;;;;14.67;13.33;;;;;6.98;100.00;102050.38;5157250;27;43825;-84
2024/04/22 02:46:24;;;;;;;;;16.67;12.00;;;;;6.90;100.00;102051.81;5182672;27;44519;-85
2024/04/22 02:48:49;;;;;;;;;13.00;12.00;;;;;6.78;100.00;102044.78;5156933;27;43973;-85
2024/04/22 02:51:15;;;;;;;;;12.00;12.00;;;;;6.79;100.00;102065.81;5182229;27;51982;-85
2024/04/22 02:53:40;;;;;;;;;11.67;11.00;;;;;6.72;100.00;102056.69;5157070;27;43959;-85
2024/04/22 02:56:05;;;;;;;;;13.00;12.00;;;;;6.73;100.00;102065.47;5182531;27;44857;-85
2024/04/22 02:58:31;;;;;;;;;12.00;12.00;;;;;6.68;100.00;102058.69;5182202;27;45595;-85
2024/04/22 03:00:56;;;;;;;;;12.67;12.33;;;;;6.65;100.00;102069.50;5156439;27;51250;-85
2024/04/22 03:03:22;;;;;;;;;12.00;11.00;;;;;6.58;100.00;102068.28;5182394;27;48832;-85
2024/04/22 03:05:47;;;;;;;;;14.33;12.33;;;;;6.57;100.00;102063.97;5156902;27;44291;-85
2024/04/22 03:08:12;;;;;;;;;16.00;14.33;;;;;6.63;100.00;102073.22;5156748;27;44224;-84
2024/04/22 03:10:38;;;;;;;;;16.00;14.00;;;;;6.62;100.00;102075.03;5156669;27;43987;-85
2024/04/22 03:13:09;;;;;;;;;12.33;12.00;;;;;6.52;100.00;102059.03;5154987;27;43870;-85
2024/04/22 03:15:38;;;;;;;;;17.00;15.00;;;;;6.52;100.00;102061.66;5156235;27;43966;-84
2024/04/22 03:18:04;;;;;;;;;15.67;14.33;;;;;6.42;100.00;102047.47;5154931;27;45913;-85
2024/04/22 03:20:30;;;;;;;;;14.67;13.67;;;;;6.52;100.00;102060.81;5156408;27;43618;-85
2024/04/22 03:22:56;;;;;;;;;17.33;16.67;;;;;6.38;100.00;102043.38;5156851;27;43769;-84
2024/04/22 03:25:21;;;;;;;;;15.00;14.67;;;;;6.42;100.00;102064.16;5156300;27;44049;-84
2024/04/22 03:27:46;;;;;;;;;12.00;12.00;;;;;6.37;100.00;102054.91;5155823;27;56481;-84
2024/04/22 03:30:12;;;;;;;;;12.33;12.33;;;;;6.38;100.00;102052.13;5156245;27;43769;-84
2024/04/22 03:32:37;;;;;;;;;21.00;15.67;;;;;6.37;100.00;102052.25;5156427;27;43748;-83
2024/04/22 03:35:03;;;;;;;;;21.67;16.67;;;;;6.40;100.00;102062.56;5182013;27;44512;-84
2024/04/22 03:37:28;;;;;;;;;19.00;17.00;;;;;6.36;100.00;102054.03;5156170;27;44014;-84
2024/04/22 03:39:54;;;;;;;;;14.33;14.33;;;;;6.32;100.00;102047.31;5154161;27;43895;-84
2024/04/22 03:42:19;;;;;;;;;15.67;15.33;;;;;6.35;100.00;102057.66;5155980;27;45167;-84
2024/04/22 03:44:44;;;;;;;;;16.00;11.00;;;;;6.35;100.00;102062.09;5154645;27;44683;-84
2024/04/22 03:49:56;;;;;;;;;14.33;14.33;;;;;6.31;100.00;102056.16;5156277;27;44053;-84
2024/04/22 03:52:21;;;;;;;;;14.33;14.33;;;;;6.33;100.00;102051.63;5156260;27;43888;-84
2024/04/22 03:54:46;;;;;;;;;15.33;13.33;;;;;6.33;100.00;102062.19;5154433;27;45931;-84
2024/04/22 03:57:12;;;;;;;;;20.00;18.00;;;;;6.28;100.00;102051.97;5153851;27;54639;-84
2024/04/22 03:59:40;;;;;;;;;17.33;16.00;;;;;6.33;100.00;102070.13;5154288;27;46603;-84
2024/04/22 04:02:05;;;;;;;;;18.00;17.67;;;;;6.32;100.00;102074.53;5154496;27;43808;-84
2024/04/22 04:04:31;;;;;;;;;20.67;19.00;;;;;6.29;100.00;102071.31;5156175;27;46982;-84
2024/04/22 04:06:56;;;;;;;;;17.67;16.33;;;;;6.32;100.00;102073.72;5154196;27;46844;-83
2024/04/22 04:09:23;;;;;;;;;18.33;17.33;;;;;6.24;100.00;102062.88;5155989;27;44989;-84
2024/04/22 04:11:49;;;;;;;;;23.25;20.50;;;;;6.27;100.00;102065.28;5156267;27;43730;-85
2024/04/22 04:14:14;;;;;;;;;16.67;16.67;;;;;6.21;100.00;102056.03;5154021;27;44636;-83
2024/04/22 04:16:39;;;;;;;;;19.50;16.25;;;;;6.18;100.00;102053.59;5154364;27;45626;-84
2024/04/22 04:19:05;;;;;;;;;19.33;19.00;;;;;6.24;100.00;102069.00;5154145;27;43907;-84
2024/04/22 04:21:30;;;;;;;;;18.33;17.00;;;;;6.22;100.00;102067.44;5156005;27;43920;-83
2024/04/22 04:23:55;;;;;;;;;16.33;16.33;;;;;6.18;100.00;102061.53;5154100;27;45917;-84
2024/04/22 04:26:21;;;;;;;;;24.75;19.75;;;;;6.10;100.00;102059.44;5155268;27;56102;-84
2024/04/22 04:28:47;;;;;;;;;18.25;18.00;;;;;6.19;100.00;102076.41;5153848;27;45456;-84
2024/04/22 04:31:12;;;;;;;;;20.33;18.00;;;;;6.13;100.00;102068.94;5154077;27;44059;-84
2024/04/22 04:33:37;;;;;;;;;23.25;20.00;;;;;6.14;100.00;102071.44;5155521;27;43872;-84
2024/04/22 04:36:05;;;;;;;;;18.67;17.67;;;;;6.14;100.00;102068.00;5155205;27;51003;-84
2024/04/22 04:38:31;;;;;;;;;21.00;20.00;;;;;6.09;100.00;102067.47;5155412;27;43626;-83
2024/04/22 04:40:57;;;;;;;;;17.00;17.00;;;;;6.12;100.00;102085.72;5153809;27;43906;-84
2024/04/22 04:43:22;;;;;;;;;20.25;17.75;;;;;6.04;100.00;102076.56;5153167;27;45629;-84
2024/04/22 04:45:49;;;;;;;;;16.50;15.50;;;;;5.97;100.00;102072.66;5155067;27;43855;-84
2024/04/22 04:48:14;;;;;;;;;25.33;22.00;;;;;6.05;100.00;102088.00;5153733;27;44477;-84
2024/04/22 04:50:40;;;;;;;;;26.50;24.50;;;;;5.94;100.00;102081.66;5155085;27;43750;-83
2024/04/22 04:53:09;;;;;;;;;27.67;24.00;;;;;5.89;100.00;102077.63;5159831;27;43937;-83
2024/04/22 04:55:34;;;;;;;;;16.67;16.33;;;;;5.86;100.00;102073.44;5154434;27;44184;-82
2024/04/22 04:57:59;;;;;;;;;24.67;23.67;;;;;5.92;100.00;102088.81;5180248;27;52350;-83
2024/04/22 05:00:24;;;;;;;;;29.00;25.67;;;;;5.91;100.00;102088.94;5153462;27;43730;-84
2024/04/22 05:02:50;;;;;;;;;27.00;23.67;;;;;5.96;100.00;102101.81;5180830;27;44622;-83
2024/04/22 05:05:15;;;;;;;;;36.50;32.50;;;;;5.85;100.00;102076.19;5154985;27;45100;-83
2024/04/22 05:07:42;;;;;;;;;22.00;21.00;;;;;5.85;100.00;102086.72;5154906;27;43823;-83
2024/04/22 05:10:10;;;;;;;;;27.75;25.00;;;;;5.93;100.00;102093.16;5180376;27;43725;-84
2024/04/22 05:12:36;;;;;;;;;36.50;34.50;;;;;5.93;100.00;102101.06;5154538;27;43725;-84
2024/04/22 05:15:01;;;;;;;;;37.25;35.00;;;;;5.94;100.00;102094.00;5153162;27;45745;-84
2024/04/22 05:17:26;;;;;;;;;54.50;42.00;;;;;5.93;100.00;102093.16;5154418;27;51580;-83
2024/04/22 05:19:51;;;;;;;;;46.25;38.25;;;;;6.00;100.00;102100.63;5154876;27;43925;-84
2024/04/22 05:22:17;;;;;;;;;45.75;37.50;;;;;5.88;100.00;102078.59;5154714;27;43937;-83
2024/04/22 05:24:42;;;;;;;;;52.75;42.25;;;;;5.85;100.00;102073.53;5154238;27;45869;-84
2024/04/22 05:27:07;;;;;;;;;52.75;45.00;;;;;5.92;100.00;102090.63;5151977;27;60489;-83
2024/04/22 05:29:33;;;;;;;;;28.25;25.75;;;;;5.92;100.00;102088.81;5179153;27;43859;-84
2024/04/22 05:31:58;;;;;;;;;29.75;24.00;;;;;5.90;100.00;102077.53;5153009;27;44038;-83
2024/04/22 05:37:07;;;;;;;;;69.00;54.25;;;;;5.88;100.00;102070.69;5153998;27;43908;-84
2024/04/22 05:39:32;;;;;;;;;79.25;61.00;;;;;6.01;100.00;102089.97;5151824;27;51196;-83
2024/04/22 05:41:58;;;;;;;;;46.00;38.50;;;;;6.06;100.00;102097.59;5154424;27;43831;-84
2024/04/22 05:44:23;;;;;;;;;63.25;47.50;;;;;6.06;100.00;102087.03;5152437;27;49150;-84
2024/04/22 05:46:48;;;;;;;;;56.50;46.25;;;;;6.12;100.00;102094.50;5152420;27;45170;-84
2024/04/22 05:49:14;;;;;;;;;69.50;54.75;;;;;6.09;100.00;102078.88;5153425;27;43239;-85
2024/04/22 05:51:39;;;;;;;;;61.50;48.25;;;;;6.20;100.00;102099.22;5154592;27;43713;-85
2024/04/22 05:54:06;;;;;;;;;66.75;50.75;;;;;6.18;100.00;102096.69;5152955;27;44823;-86
2024/04/22 05:56:32;;;;;;;;;51.75;41.50;;;;;6.27;100.00;102118.09;5155055;27;43702;-86
2024/04/22 05:58:58;;;;;;;;;26.33;25.67;;;;;6.26;100.00;102108.50;5155409;27;43800;-84
2024/04/22 06:01:23;;;;;;;;;37.75;33.75;;;;;6.26;100.00;102100.56;5156167;27;43963;-83
2024/04/22 06:03:48;;;;;;;;;22.75;20.25;;;;;6.21;100.00;102097.41;5155419;27;44261;-84
2024/04/22 06:06:14;;;;;;;;;23.33;21.67;;;;;6.28;100.00;102099.50;5155754;27;47574;-84
2024/04/22 06:08:39;;;;;;;;;28.50;25.00;;;;;6.34;100.00;102115.88;5156741;27;44992;-85
2024/04/22 06:11:04;;;;;;;;;24.50;23.50;;;;;6.34;100.00;102107.94;5155567;27;44660;-84
2024/04/22 06:13:30;;;;;;;;;27.00;25.25;;;;;6.31;100.00;102107.19;5164085;27;53556;-85
2024/04/22 06:15:56;;;;;;;;;30.25;25.50;;;;;6.36;100.00;102101.59;5156991;27;44182;-85
2024/04/22 06:18:22;;;;;;;;;30.25;27.75;;;;;6.38;100.00;102104.13;5157304;27;43971;-85
2024/04/22 06:20:47;;;;;;;;;28.00;27.25;;;;;6.41;100.00;102107.34;5157614;27;44138;-83
2024/04/22 06:23:12;;;;;;;;;24.25;24.25;;;;;6.44;100.00;102106.31;5157613;27;43960;-85
2024/04/22 06:25:38;;;;;;;;;25.25;23.25;;;;;6.45;100.00;102094.78;5155337;27;43860;-84
2024/04/22 06:28:03;;;;;;;;;29.75;23.75;;;;;6.43;100.00;102086.13;5154927;27;43698;-83
2024/04/22 06:30:28;;;;;;;;;31.25;25.25;;;;;6.50;100.00;102100.53;5181847;27;44656;-82
2024/04/22 06:32:55;;;;;;;;;26.75;25.25;;;;;6.59;100.00;102104.34;5156438;27;45044;-82
2024/04/22 06:35:22;;;;;;;;;26.00;24.25;;;;;6.62;100.00;102101.47;5157198;27;43734;-83
2024/04/22 06:37:47;;;;;;;;;25.75;24.75;;;;;6.63;100.00;102104.94;5156369;27;43734;-81
2024/04/22 06:40:12;;;;;;;;;27.75;24.75;;;;;6.68;100.00;102098.34;5181539;27;44550;-81
2024/04/22 06:42:38;;;;;;;;;33.33;27.00;;;;;6.67;100.00;102107.22;5154885;27;45747;-83
2024/04/22 06:45:03;;;;;;;;;33.75;29.50;;;;;6.68;100.00;102098.34;5155177;27;43895;-82
2024/04/22 06:47:28;;;;;;;;;28.00;25.50;;;;;6.66;100.00;102086.22;5157266;27;43848;-83
2024/04/22 06:49:54;;;;;;;;;29.50;27.75;;;;;6.81;100.00;102110.63;5156254;27;43892;-83
2024/04/22 06:52:19;;;;;;;;;27.25;25.00;;;;;6.90;100.00;102123.16;5155980;27;49543;-82
2024/04/22 06:54:44;;;;;;;;;25.75;20.25;;;;;6.91;100.00;102124.84;5156404;27;43857;-82
2024/04/22 06:57:10;;;;;;;;;27.67;23.33;;;;;6.98;100.00;102133.16;5154513;27;43945;-84
2024/04/22 06:59:35;;;;;;;;;34.00;28.00;;;;;7.00;100.00;102125.13;5156007;27;43978;-81
2024/04/22 07:02:01;;;;;;;;;31.50;28.25;;;;;7.00;100.00;102117.19;5182367;27;45818;-85
2024/04/22 07:04:26;;;;;;;;;29.75;28.75;;;;;7.12;100.00;102129.47;5154424;27;44528;-82
2024/04/22 07:06:54;;;;;;;;;32.25;31.50;;;;;7.22;100.00;102139.34;5156626;27;43919;-84
2024/04/22 07:09:19;;;;;;;;;30.75;30.50;;;;;7.26;100.00;102130.19;5182460;27;45857;-86
2024/04/22 07:11:44;;;;;;;;;28.33;25.67;;;;;7.24;100.00;102117.09;5156776;27;44438;-83
2024/04/22 07:14:11;;;;;;;;;31.00;27.25;;;;;7.41;100.00;102121.09;5155134;27;43829;-85
2024/04/22 07:16:40;;;;;;;;;28.67;27.67;;;;;7.60;100.00;102140.81;5154979;27;43735;-85
2024/04/22 07:19:05;;;;;;;;;29.67;27.00;;;;;7.55;100.00;102114.69;5155015;27;44899;-82
2024/04/22 07:21:32;;;;;;;;;29.67;29.33;;;;;7.60;100.00;102121.47;5157592;27;44079;-80
2024/04/22 07:23:57;;;;;;;;;28.67;27.33;;;;;7.61;100.00;102112.56;5155061;27;45162;-82
2024/04/22 07:26:22;;;;;;;;;33.25;29.50;;;;;7.73;100.00;102122.19;5154498;27;46620;-83
2024/04/22 07:28:48;;;;;;;;;34.75;31.25;;;;;7.76;100.00;102123.72;5156917;27;43939;-82
2024/04/22 07:31:14;;;;;;;;;29.67;27.00;;;;;7.83;100.00;102123.13;5147873;27;46881;-83
2024/04/22 07:33:39;;;;;;;;;27.33;26.00;;;;;7.87;100.00;102115.78;5149237;27;43825;-82
2024/04/22 07:36:17;;;;;;;;;23.33;22.00;;;;;7.90;100.00;102110.22;5158555;27;43995;-81
2024/04/22 07:38:44;;;;;;;;;31.67;26.67;;;;;7.96;100.00;102117.69;5154902;27;44753;-82
2024/04/22 07:41:09;;;;;;;;;34.50;32.00;;;;;8.03;100.00;102117.19;5152892;27;45791;-82
2024/04/22 07:43:34;;;;;;;;;54.25;45.00;;;;;8.06;100.00;102111.66;5155830;27;44306;-83
2024/04/22 07:46:00;;;;;;;;;33.33;28.67;;;;;8.14;100.00;102124.28;5156139;27;43983;-83
2024/04/22 07:48:25;;;;;;;;;25.33;24.00;;;;;8.11;100.00;102111.28;5154232;27;45501;-83
2024/04/22 07:50:50;;;;;;;;;27.00;23.00;;;;;8.23;100.00;102120.88;5155546;27;44751;-81
2024/04/22 07:53:16;;;;;;;;;27.00;23.67;;;;;8.24;100.00;102108.47;5153685;27;50934;-81
2024/04/22 07:55:42;;;;;;;;;27.00;25.33;;;;;8.37;100.00;102119.75;5155575;27;43882;-83
2024/04/22 07:58:08;;;;;;;;;27.00;24.00;;;;;8.44;100.00;102112.97;5153988;27;44871;-83
2024/04/22 08:00:34;;;;;;;;;26.00;23.33;;;;;8.51;100.00;102113.34;5155758;27;44074;-81
2024/04/22 08:02:59;;;;;;;;;27.00;27.00;;;;;8.64;100.00;102123.78;5156115;27;43812;-83
2024/04/22 08:05:25;;;;;;;;;28.00;25.67;;;;;8.63;100.00;102111.50;5154623;27;43752;-81
2024/04/22 08:07:57;;;;;;;;;27.67;26.00;;;;;8.67;100.00;102104.13;5156322;27;44018;-82
2024/04/22 08:10:22;;;;;;;;;31.67;29.00;;;;;8.75;100.00;102112.28;5158628;27;46817;-82
2024/04/22 08:12:48;;;;;;;;;22.67;21.00;;;;;8.81;100.00;102101.19;5171044;27;43915;-81
2024/04/22 08:15:13;;;;;;;;;23.33;22.00;;;;;8.92;100.00;102108.22;5178023;27;44418;-80
2024/04/22 08:17:38;;;;;;;;;23.00;23.00;;;;;8.99;100.00;102097.09;5191853;27;44050;-79
2024/04/22 08:20:04;;;;;;;;;70.75;54.25;;;;;9.03;100.00;102091.41;5172112;27;45175;-81
2024/04/22 08:22:31;;;;;;;;;48.25;41.25;;;;;9.17;100.00;102095.53;5156517;27;43854;-81
2024/04/22 08:24:57;;;;;;;;;56.00;43.50;;;;;9.34;100.00;102104.69;5157216;27;43829;-83
2024/04/22 08:27:23;;;;;;;;;32.33;25.00;;;;;9.32;100.00;102076.59;5154371;27;44893;-84
2024/04/22 08:29:52;;;;;;;;;44.75;35.00;;;;;9.26;100.00;102058.56;5153627;27;43916;-83
2024/04/22 08:32:18;;;;;;;;;24.33;22.67;;;;;9.53;100.00;102081.00;5155647;27;43988;-82
2024/04/22 08:34:44;;;;;;;;;19.00;19.00;;;;;9.67;100.00;102101.88;5156369;27;44004;-83
2024/04/22 08:37:09;;;;;;;;;21.00;21.00;;;;;9.56;100.00;102075.44;5179237;27;43817;-80
2024/04/22 08:39:35;;;;;;;;;20.67;19.00;;;;;9.69;100.00;102084.00;5163943;27;43847;-85
2024/04/22 08:42:09;;;;;;;;;18.00;18.00;;;;;9.88;100.00;102108.94;5180797;27;43659;-80
2024/04/22 08:44:34;;;;;;;;;28.67;27.67;;;;;9.89;100.00;102097.34;5181503;27;44043;-79
2024/04/22 08:46:59;;;;;;;;;26.33;24.00;;;;;10.08;100.00;102098.34;5180227;27;43912;-82
2024/04/22 08:49:25;;;;;;;;;21.67;19.33;;;;;10.20;100.00;102097.25;5153344;27;45936;-83
2024/04/22 08:51:56;;;;;;;;;19.00;18.00;;;;;10.29;100.00;102100.03;5156990;27;43723;-82
2024/04/22 08:54:24;;;;;;;;;20.67;20.00;;;;;10.41;100.00;102100.72;5156559;27;44019;-80
2024/04/22 08:56:53;;;;;;;;;16.67;16.33;;;;;10.32;100.00;102086.47;5156817;27;43987;-82
2024/04/22 08:59:18;;;;;;;;;12.67;11.00;;;;;10.35;100.00;102087.03;5153349;27;47066;-84
2024/04/22 09:01:43;;;;;;;;;27.00;25.00;;;;;10.32;100.00;102082.00;5153014;27;43977;-84
2024/04/22 09:04:09;;;;;;;;;40.00;34.50;;;;;10.39;100.00;102084.09;5154545;27;43916;-84
2024/04/22 09:06:34;;;;;;;;;52.75;42.25;;;;;10.43;100.00;102086.34;5126765;27;45639;-84
2024/04/22 09:08:59;;;;;;;;;25.33;22.33;;;;;10.46;100.00;102085.25;5154851;27;46737;-81
2024/04/22 09:11:25;;;;;;;;;39.00;33.00;;;;;10.55;100.00;102080.91;5184413;27;43815;-84
2024/04/22 09:14:00;;;;;;;;;35.00;32.67;;;;;10.68;100.00;102070.81;5188171;27;43836;-83
2024/04/22 09:16:25;;;;;;;;;33.67;31.00;;;;;10.84;100.00;102082.69;5188228;27;43808;-82
2024/04/22 09:18:51;;;;;;;;;61.00;49.00;;;;;10.90;100.00;102078.63;5178775;27;44011;-83
2024/04/22 09:21:16;;;;;;;;;16.33;12.00;;;;;10.95;100.00;102079.88;5161831;27;43966;-86
2024/04/22 09:23:42;;;;;;;;;12.33;12.33;;;;;10.98;100.00;102068.09;5154651;27;44067;-82
2024/04/22 09:26:07;;;;;;;;;26.67;25.33;;;;;11.05;100.00;102063.03;5151857;27;44660;-82
2024/04/22 09:28:38;;;;;;;;;84.75;71.00;;;;;11.28;100.00;102078.66;5152322;27;46108;-83
2024/04/22 09:31:04;;;;;;;;;27.00;24.00;;;;;11.26;100.00;102064.66;5154152;27;44062;-82
2024/04/22 09:33:38;;;;;;;;;40.33;36.67;;;;;11.30;100.00;102040.25;5186883;27;43892;-81
2024/04/22 09:36:05;;;;;;;;;20.33;16.00;;;;;11.34;100.00;102033.66;5184958;27;44993;-81
2024/04/22 09:38:33;;;;;;;;;14.67;13.67;;;;;11.59;100.00;102041.09;5203817;27;45766;-84
2024/04/22 09:41:03;;;;;;;;;15.00;15.00;;;;;11.79;100.00;102056.97;5154862;27;43852;-82
2024/04/22 09:43:34;;;;;;;;;14.00;13.00;;;;;11.86;100.00;102045.53;5155748;27;43987;-83
2024/04/22 09:46:03;;;;;;;;;13.50;11.50;;;;;11.89;100.00;102047.09;5157971;27;43916;-83
2024/04/22 09:48:32;;;;;;;;;10.33;10.33;;;;;12.05;96.99;102046.41;5155530;27;45877;-81
2024/04/22 09:50:59;;;;;;;;;22.67;20.67;;;;;12.27;94.68;102048.78;5157116;27;43857;-81
2024/04/22 09:53:28;;;;;;;;;23.00;17.67;;;;;12.44;93.84;102047.09;5157738;27;43840;-83
2024/04/22 09:56:05;;;;;;;;;12.67;11.67;;;;;12.61;94.56;102056.06;5171594;27;44545;-82
2024/04/22 09:58:34;;;;;;;;;15.00;14.00;;;;;12.67;95.87;102047.44;5190810;27;43996;-82
2024/04/22 10:01:00;;;;;;;;;13.00;13.00;;;;;12.63;94.70;102038.91;5188543;27;43514;-85
2024/04/22 10:03:27;;;;;;;;;14.00;13.00;;;;;12.42;93.09;102033.91;5189111;27;43652;-82
2024/04/22 10:05:55;;;;;;;;;13.00;11.67;;;;;12.32;91.38;102039.34;5190254;27;43705;-83
2024/04/22 10:12:07;;;;;;;;;13.00;11.67;;;;;11.86;88.70;102010.09;5189468;27;43844;-81
2024/04/22 10:14:32;;;;;;;;;16.00;13.00;;;;;11.89;90.78;102022.25;5189517;27;44033;-79
2024/04/22 10:17:02;;;;;;;;;14.67;13.00;;;;;11.92;89.57;102029.94;5187788;27;44757;-78
2024/04/22 10:19:33;;;;;;;;;7.33;7.33;;;;;11.90;91.40;102029.25;5189561;27;45349;-79
2024/04/22 10:22:00;;;;;;;;;13.00;12.67;;;;;11.94;89.87;102035.97;5160435;27;43747;-80
2024/04/22 10:24:39;;;;;;;;;12.33;12.33;;;;;11.99;90.21;102031.00;5187924;27;43898;-81
2024/04/22 10:27:09;;;;;;;;;11.33;10.33;;;;;12.07;89.27;102014.31;5189108;27;44074;-80
2024/04/22 10:29:35;;;;;;;;;12.67;11.33;;;;;12.16;87.56;102020.53;5174325;27;43945;-83
2024/04/22 10:32:00;;;;;;;;;11.00;10.67;;;;;12.22;87.60;102026.06;5156305;27;43727;-82
2024/04/22 10:34:27;;;;;;;;;10.33;10.00;;;;;12.28;85.71;102023.81;5155348;27;43654;-85
2024/04/22 10:36:52;;;;;;;;;11.67;10.33;;;;;12.32;84.18;102011.84;5182527;27;44930;-79
2024/04/22 10:39:18;;;;;;;;;10.67;9.67;;;;;12.36;83.32;102016.69;5156170;27;44075;-80
2024/04/22 10:41:44;;;;;;;;;10.67;10.67;;;;;12.40;82.02;102011.06;5154873;27;44642;-80
2024/04/22 10:44:09;;;;;;;;;8.00;8.00;;;;;12.39;83.38;102004.88;5154729;27;44008;-80
2024/04/22 10:46:37;;;;;;;;;13.33;12.67;;;;;12.45;83.31;102006.94;5156308;27;43899;-80
2024/04/22 10:49:04;;;;;;;;;12.00;11.33;;;;;12.46;83.95;102005.97;5155346;27;44290;-80
2024/04/22 10:51:29;;;;;;;;;14.00;14.00;;;;;12.54;84.24;102010.50;5153062;27;43901;-82
2024/04/22 10:53:55;;;;;;;;;13.33;12.67;;;;;12.52;84.26;102014.31;5181324;27;43706;-81
2024/04/22 10:56:23;;;;;;;;;8.33;7.67;;;;;12.47;81.57;102015.63;5154433;27;44983;-80
2024/04/22 10:58:50;;;;;;;;;12.33;11.67;;;;;12.42;81.42;102014.44;5186700;27;45931;-81
2024/04/22 11:01:16;;;;;;;;;14.00;11.67;;;;;12.41;81.73;102021.56;5173693;27;44014;-81
2024/04/22 11:03:41;;;;;;;;;13.33;12.00;;;;;12.34;82.37;102000.03;5164937;27;43809;-82
2024/04/22 11:06:11;;;;;;;;;9.33;9.33;;;;;12.48;81.98;102013.81;5154360;27;45843;-83
2024/04/22 11:08:39;;;;;;;;;12.00;12.00;;;;;12.60;82.01;102017.88;5155973;27;44243;-81
2024/04/22 11:11:05;;;;;;;;;11.67;11.33;;;;;12.70;81.90;101979.59;5154082;27;44183;-83
2024/04/22 11:13:32;;;;;;;;;49.00;39.33;;;;;13.22;82.61;102007.19;5156192;27;43962;-82